sensor_id;sensor_type;location;lat;lon;timestamp;P1;durP1;ratioP1;P2;durP2;ratioP2
19456;SDS011;9867;48.094;11.478;2022-09-23T00:02:05;5.97;;;5.37;;
19456;SDS011;9867;48.094;11.478;2022-09-23T00:04:33;4.80;;;4.40;;
19456;SDS011;9867;48.094;11.478;2022-09-23T00:07:02;5.00;;;4.50;;
19456;SDS011;9867;48.094;11.478;2022-09-23T00:09:30;5.30;;;4.80;;
19456;SDS011;9867;48.094;11.478;2022-09-23T00:11:58;8.00;;;4.93;;
19456;SDS011;9867;48.094;11.478;2022-09-23T00:14:31;4.80;;;4.40;;
19456;SDS011;9867;48.094;11.478;2022-09-23T00:16:58;4.43;;;4.07;;
19456;SDS011;9867;48.094;11.478;2022-09-23T00:19:26;4.70;;;4.23;;
19456;SDS011;9867;48.094;11.478;2022-09-23T00:21:54;6.10;;;4.63;;
19456;SDS011;9867;48.094;11.478;2022-09-23T00:24:26;4.80;;;4.40;;
19456;SDS011;9867;48.094;11.478;2022-09-23T00:26:57;4.67;;;4.27;;
19456;SDS011;9867;48.094;11.478;2022-09-23T00:29:25;6.73;;;5.20;;
19456;SDS011;9867;48.094;11.478;2022-09-23T00:31:53;4.97;;;4.57;;
19456;SDS011;9867;48.094;11.478;2022-09-23T00:34:21;4.90;;;4.47;;
19456;SDS011;9867;48.094;11.478;2022-09-23T00:36:48;5.70;;;4.80;;
19456;SDS011;9867;48.094;11.478;2022-09-23T00:39:16;5.80;;;4.17;;
19456;SDS011;9867;48.094;11.478;2022-09-23T00:41:45;4.53;;;4.17;;
19456;SDS011;9867;48.094;11.478;2022-09-23T00:47:16;5.77;;;4.53;;
19456;SDS011;9867;48.094;11.478;2022-09-23T00:49:48;5.03;;;4.53;;
19456;SDS011;9867;48.094;11.478;2022-09-23T00:52:27;4.83;;;4.43;;
19456;SDS011;9867;48.094;11.478;2022-09-23T00:54:57;5.87;;;5.03;;
19456;SDS011;9867;48.094;11.478;2022-09-23T00:57:27;5.67;;;4.57;;
19456;SDS011;9867;48.094;11.478;2022-09-23T00:59:56;5.07;;;4.67;;
19456;SDS011;9867;48.094;11.478;2022-09-23T01:02:24;5.27;;;4.63;;
19456;SDS011;9867;48.094;11.478;2022-09-23T01:04:53;5.40;;;4.63;;
19456;SDS011;9867;48.094;11.478;2022-09-23T01:07:21;5.37;;;4.87;;
19456;SDS011;9867;48.094;11.478;2022-09-23T01:09:49;4.97;;;4.57;;
19456;SDS011;9867;48.094;11.478;2022-09-23T01:12:21;5.33;;;4.90;;
19456;SDS011;9867;48.094;11.478;2022-09-23T01:15:01;4.90;;;4.53;;
19456;SDS011;9867;48.094;11.478;2022-09-23T01:17:36;6.33;;;4.80;;
19456;SDS011;9867;48.094;11.478;2022-09-23T01:20:18;6.60;;;4.60;;
19456;SDS011;9867;48.094;11.478;2022-09-23T01:23:12;4.87;;;4.50;;
19456;SDS011;9867;48.094;11.478;2022-09-23T01:26:03;4.60;;;4.30;;
19456;SDS011;9867;48.094;11.478;2022-09-23T01:28:50;4.70;;;4.17;;
19456;SDS011;9867;48.094;11.478;2022-09-23T01:31:32;5.00;;;4.60;;
19456;SDS011;9867;48.094;11.478;2022-09-23T01:34:09;4.70;;;4.30;;
19456;SDS011;9867;48.094;11.478;2022-09-23T01:36:42;4.17;;;3.87;;
19456;SDS011;9867;48.094;11.478;2022-09-23T01:39:15;4.60;;;4.20;;
19456;SDS011;9867;48.094;11.478;2022-09-23T01:41:51;4.30;;;4.00;;
19456;SDS011;9867;48.094;11.478;2022-09-23T01:44:26;5.57;;;4.00;;
19456;SDS011;9867;48.094;11.478;2022-09-23T01:47:00;4.67;;;4.27;;
19456;SDS011;9867;48.094;11.478;2022-09-23T01:49:38;4.03;;;3.73;;
19456;SDS011;9867;48.094;11.478;2022-09-23T01:52:12;5.40;;;4.10;;
19456;SDS011;9867;48.094;11.478;2022-09-23T01:54:45;4.17;;;3.77;;
19456;SDS011;9867;48.094;11.478;2022-09-23T01:57:20;4.17;;;3.87;;
19456;SDS011;9867;48.094;11.478;2022-09-23T01:59:54;4.50;;;4.10;;
19456;SDS011;9867;48.094;11.478;2022-09-23T02:02:38;4.43;;;4.03;;
19456;SDS011;9867;48.094;11.478;2022-09-23T02:05:15;4.47;;;4.07;;
19456;SDS011;9867;48.094;11.478;2022-09-23T02:07:50;4.47;;;4.00;;
19456;SDS011;9867;48.094;11.478;2022-09-23T02:10:26;4.63;;;4.00;;
19456;SDS011;9867;48.094;11.478;2022-09-23T02:13:01;4.10;;;3.70;;
19456;SDS011;9867;48.094;11.478;2022-09-23T02:15:34;6.70;;;3.90;;
19456;SDS011;9867;48.094;11.478;2022-09-23T02:18:10;4.20;;;3.80;;
19456;SDS011;9867;48.094;11.478;2022-09-23T02:20:41;4.13;;;3.77;;
19456;SDS011;9867;48.094;11.478;2022-09-23T02:23:10;3.33;;;3.13;;
19456;SDS011;9867;48.094;11.478;2022-09-23T02:25:41;4.67;;;3.67;;
19456;SDS011;9867;48.094;11.478;2022-09-23T02:28:19;3.90;;;3.60;;
19456;SDS011;9867;48.094;11.478;2022-09-23T02:30:59;3.60;;;3.30;;
19456;SDS011;9867;48.094;11.478;2022-09-23T02:33:35;3.47;;;3.17;;
19456;SDS011;9867;48.094;11.478;2022-09-23T02:36:08;3.27;;;3.07;;
19456;SDS011;9867;48.094;11.478;2022-09-23T02:38:39;4.27;;;3.20;;
19456;SDS011;9867;48.094;11.478;2022-09-23T02:41:13;3.47;;;3.17;;
19456;SDS011;9867;48.094;11.478;2022-09-23T02:43:46;3.67;;;3.23;;
19456;SDS011;9867;48.094;11.478;2022-09-23T02:46:20;3.40;;;3.13;;
19456;SDS011;9867;48.094;11.478;2022-09-23T02:48:51;3.60;;;3.40;;
19456;SDS011;9867;48.094;11.478;2022-09-23T02:51:22;3.70;;;3.40;;
19456;SDS011;9867;48.094;11.478;2022-09-23T02:53:52;3.60;;;3.30;;
19456;SDS011;9867;48.094;11.478;2022-09-23T02:56:21;3.83;;;3.53;;
19456;SDS011;9867;48.094;11.478;2022-09-23T02:58:50;3.33;;;3.13;;
19456;SDS011;9867;48.094;11.478;2022-09-23T03:01:21;3.53;;;3.23;;
19456;SDS011;9867;48.094;11.478;2022-09-23T03:04:08;3.67;;;3.37;;
19456;SDS011;9867;48.094;11.478;2022-09-23T03:06:46;5.63;;;3.10;;
19456;SDS011;9867;48.094;11.478;2022-09-23T03:09:24;3.17;;;2.97;;
19456;SDS011;9867;48.094;11.478;2022-09-23T03:11:58;3.17;;;2.97;;
19456;SDS011;9867;48.094;11.478;2022-09-23T03:14:37;3.10;;;2.80;;
19456;SDS011;9867;48.094;11.478;2022-09-23T03:17:17;3.20;;;3.00;;
19456;SDS011;9867;48.094;11.478;2022-09-23T03:19:52;3.70;;;3.40;;
19456;SDS011;9867;48.094;11.478;2022-09-23T03:22:26;3.27;;;3.07;;
19456;SDS011;9867;48.094;11.478;2022-09-23T03:24:57;3.20;;;3.00;;
19456;SDS011;9867;48.094;11.478;2022-09-23T03:27:29;3.40;;;3.10;;
19456;SDS011;9867;48.094;11.478;2022-09-23T03:30:00;3.77;;;3.50;;
19456;SDS011;9867;48.094;11.478;2022-09-23T03:32:30;3.60;;;3.30;;
19456;SDS011;9867;48.094;11.478;2022-09-23T03:35:02;5.60;;;3.87;;
19456;SDS011;9867;48.094;11.478;2022-09-23T03:37:32;4.27;;;3.90;;
19456;SDS011;9867;48.094;11.478;2022-09-23T03:40:06;4.37;;;3.50;;
19456;SDS011;9867;48.094;11.478;2022-09-23T03:42:39;4.40;;;3.27;;
19456;SDS011;9867;48.094;11.478;2022-09-23T03:45:09;3.77;;;3.27;;
19456;SDS011;9867;48.094;11.478;2022-09-23T03:47:42;3.43;;;3.20;;
19456;SDS011;9867;48.094;11.478;2022-09-23T03:50:15;3.83;;;3.07;;
19456;SDS011;9867;48.094;11.478;2022-09-23T03:52:43;3.37;;;3.07;;
19456;SDS011;9867;48.094;11.478;2022-09-23T03:55:11;3.73;;;3.10;;
19456;SDS011;9867;48.094;11.478;2022-09-23T03:57:41;5.30;;;3.90;;
19456;SDS011;9867;48.094;11.478;2022-09-23T04:00:10;3.80;;;3.50;;
19456;SDS011;9867;48.094;11.478;2022-09-23T04:02:39;3.57;;;3.30;;
19456;SDS011;9867;48.094;11.478;2022-09-23T04:05:08;3.90;;;3.60;;
19456;SDS011;9867;48.094;11.478;2022-09-23T04:07:38;4.07;;;3.70;;
19456;SDS011;9867;48.094;11.478;2022-09-23T04:10:07;3.63;;;3.33;;
19456;SDS011;9867;48.094;11.478;2022-09-23T04:12:35;4.10;;;3.40;;
19456;SDS011;9867;48.094;11.478;2022-09-23T04:15:04;3.97;;;3.30;;
19456;SDS011;9867;48.094;11.478;2022-09-23T04:17:33;3.60;;;3.30;;
19456;SDS011;9867;48.094;11.478;2022-09-23T04:20:01;3.33;;;3.13;;
19456;SDS011;9867;48.094;11.478;2022-09-23T04:22:28;3.80;;;3.50;;
19456;SDS011;9867;48.094;11.478;2022-09-23T04:24:58;6.00;;;3.50;;
19456;SDS011;9867;48.094;11.478;2022-09-23T04:27:26;3.50;;;3.30;;
19456;SDS011;9867;48.094;11.478;2022-09-23T04:29:54;3.93;;;3.53;;
19456;SDS011;9867;48.094;11.478;2022-09-23T04:32:21;3.93;;;3.63;;
19456;SDS011;9867;48.094;11.478;2022-09-23T04:34:49;3.90;;;3.60;;
19456;SDS011;9867;48.094;11.478;2022-09-23T04:37:17;3.93;;;3.47;;
19456;SDS011;9867;48.094;11.478;2022-09-23T04:39:45;3.70;;;3.40;;
19456;SDS011;9867;48.094;11.478;2022-09-23T04:42:14;4.73;;;3.97;;
19456;SDS011;9867;48.094;11.478;2022-09-23T04:44:42;3.60;;;3.30;;
19456;SDS011;9867;48.094;11.478;2022-09-23T04:47:09;3.93;;;3.57;;
19456;SDS011;9867;48.094;11.478;2022-09-23T04:49:37;4.57;;;3.43;;
19456;SDS011;9867;48.094;11.478;2022-09-23T04:52:05;3.77;;;3.50;;
19456;SDS011;9867;48.094;11.478;2022-09-23T04:54:33;3.53;;;3.23;;
19456;SDS011;9867;48.094;11.478;2022-09-23T04:57:00;3.67;;;3.33;;
19456;SDS011;9867;48.094;11.478;2022-09-23T04:59:30;3.87;;;3.57;;
19456;SDS011;9867;48.094;11.478;2022-09-23T05:01:57;3.73;;;3.43;;
19456;SDS011;9867;48.094;11.478;2022-09-23T05:04:25;4.20;;;3.80;;
19456;SDS011;9867;48.094;11.478;2022-09-23T05:06:53;3.83;;;3.40;;
19456;SDS011;9867;48.094;11.478;2022-09-23T05:09:28;3.53;;;3.23;;
19456;SDS011;9867;48.094;11.478;2022-09-23T05:11:57;3.73;;;3.37;;
19456;SDS011;9867;48.094;11.478;2022-09-23T05:14:24;3.80;;;3.50;;
19456;SDS011;9867;48.094;11.478;2022-09-23T05:16:54;4.30;;;3.90;;
19456;SDS011;9867;48.094;11.478;2022-09-23T05:19:21;3.63;;;3.37;;
19456;SDS011;9867;48.094;11.478;2022-09-23T05:21:49;4.27;;;3.20;;
19456;SDS011;9867;48.094;11.478;2022-09-23T05:24:17;3.60;;;3.30;;
19456;SDS011;9867;48.094;11.478;2022-09-23T05:26:45;3.50;;;3.20;;
19456;SDS011;9867;48.094;11.478;2022-09-23T05:29:13;4.00;;;3.70;;
19456;SDS011;9867;48.094;11.478;2022-09-23T05:31:41;3.90;;;3.60;;
19456;SDS011;9867;48.094;11.478;2022-09-23T05:34:10;6.77;;;3.13;;
19456;SDS011;9867;48.094;11.478;2022-09-23T05:36:38;3.83;;;3.40;;
19456;SDS011;9867;48.094;11.478;2022-09-23T05:39:06;3.50;;;3.20;;
19456;SDS011;9867;48.094;11.478;2022-09-23T05:41:34;3.20;;;3.00;;
19456;SDS011;9867;48.094;11.478;2022-09-23T05:44:03;3.57;;;3.27;;
19456;SDS011;9867;48.094;11.478;2022-09-23T05:46:31;3.40;;;3.10;;
19456;SDS011;9867;48.094;11.478;2022-09-23T05:48:59;3.17;;;2.97;;
19456;SDS011;9867;48.094;11.478;2022-09-23T05:51:34;3.17;;;2.97;;
19456;SDS011;9867;48.094;11.478;2022-09-23T05:54:03;3.70;;;3.03;;
19456;SDS011;9867;48.094;11.478;2022-09-23T05:56:32;3.00;;;2.70;;
19456;SDS011;9867;48.094;11.478;2022-09-23T05:59:01;3.20;;;2.83;;
19456;SDS011;9867;48.094;11.478;2022-09-23T06:01:30;2.47;;;2.30;;
19456;SDS011;9867;48.094;11.478;2022-09-23T06:04:01;3.00;;;2.80;;
19456;SDS011;9867;48.094;11.478;2022-09-23T06:06:30;3.57;;;2.83;;
19456;SDS011;9867;48.094;11.478;2022-09-23T06:09:01;4.43;;;3.20;;
19456;SDS011;9867;48.094;11.478;2022-09-23T06:11:30;5.57;;;2.83;;
19456;SDS011;9867;48.094;11.478;2022-09-23T06:13:58;3.17;;;2.90;;
19456;SDS011;9867;48.094;11.478;2022-09-23T06:16:28;3.10;;;2.83;;
19456;SDS011;9867;48.094;11.478;2022-09-23T06:18:57;4.43;;;3.23;;
19456;SDS011;9867;48.094;11.478;2022-09-23T06:21:32;4.10;;;3.70;;
19456;SDS011;9867;48.094;11.478;2022-09-23T06:24:02;3.10;;;2.90;;
19456;SDS011;9867;48.094;11.478;2022-09-23T06:26:31;3.05;;;2.85;;
19456;SDS011;9867;48.094;11.478;2022-09-23T06:29:00;3.20;;;3.00;;
19456;SDS011;9867;48.094;11.478;2022-09-23T06:31:29;4.40;;;3.10;;
19456;SDS011;9867;48.094;11.478;2022-09-23T06:33:58;3.53;;;3.00;;
19456;SDS011;9867;48.094;11.478;2022-09-23T06:36:38;2.93;;;2.73;;
19456;SDS011;9867;48.094;11.478;2022-09-23T06:39:12;2.90;;;2.70;;
19456;SDS011;9867;48.094;11.478;2022-09-23T06:41:41;3.33;;;3.00;;
19456;SDS011;9867;48.094;11.478;2022-09-23T06:44:12;5.87;;;2.73;;
19456;SDS011;9867;48.094;11.478;2022-09-23T06:46:40;3.73;;;2.73;;
19456;SDS011;9867;48.094;11.478;2022-09-23T06:49:08;3.43;;;2.70;;
19456;SDS011;9867;48.094;11.478;2022-09-23T06:51:38;3.37;;;2.73;;
19456;SDS011;9867;48.094;11.478;2022-09-23T06:54:06;4.10;;;2.97;;
19456;SDS011;9867;48.094;11.478;2022-09-23T06:56:36;2.83;;;2.63;;
19456;SDS011;9867;48.094;11.478;2022-09-23T06:59:05;3.53;;;2.70;;
19456;SDS011;9867;48.094;11.478;2022-09-23T07:01:35;3.10;;;2.80;;
19456;SDS011;9867;48.094;11.478;2022-09-23T07:04:03;3.20;;;2.80;;
19456;SDS011;9867;48.094;11.478;2022-09-23T07:06:32;4.93;;;2.90;;
19456;SDS011;9867;48.094;11.478;2022-09-23T07:09:00;4.40;;;2.70;;
19456;SDS011;9867;48.094;11.478;2022-09-23T07:11:28;2.80;;;2.60;;
19456;SDS011;9867;48.094;11.478;2022-09-23T07:13:57;3.03;;;2.83;;
19456;SDS011;9867;48.094;11.478;2022-09-23T07:16:25;2.97;;;2.77;;
19456;SDS011;9867;48.094;11.478;2022-09-23T07:18:53;3.90;;;2.80;;
19456;SDS011;9867;48.094;11.478;2022-09-23T07:21:21;2.77;;;2.63;;
19456;SDS011;9867;48.094;11.478;2022-09-23T07:23:49;3.23;;;2.80;;
19456;SDS011;9867;48.094;11.478;2022-09-23T07:26:17;2.70;;;2.50;;
19456;SDS011;9867;48.094;11.478;2022-09-23T07:28:46;2.40;;;2.30;;
19456;SDS011;9867;48.094;11.478;2022-09-23T07:31:16;2.60;;;2.40;;
19456;SDS011;9867;48.094;11.478;2022-09-23T07:33:57;6.93;;;2.80;;
19456;SDS011;9867;48.094;11.478;2022-09-23T07:36:28;2.63;;;2.43;;
19456;SDS011;9867;48.094;11.478;2022-09-23T07:38:58;6.10;;;3.30;;
19456;SDS011;9867;48.094;11.478;2022-09-23T07:41:28;3.60;;;3.30;;
19456;SDS011;9867;48.094;11.478;2022-09-23T07:43:57;2.97;;;2.67;;
19456;SDS011;9867;48.094;11.478;2022-09-23T07:46:28;2.87;;;2.30;;
19456;SDS011;9867;48.094;11.478;2022-09-23T07:48:57;2.90;;;2.70;;
19456;SDS011;9867;48.094;11.478;2022-09-23T07:51:27;3.10;;;2.60;;
19456;SDS011;9867;48.094;11.478;2022-09-23T07:54:01;3.53;;;2.30;;
19456;SDS011;9867;48.094;11.478;2022-09-23T07:56:30;4.57;;;2.33;;
19456;SDS011;9867;48.094;11.478;2022-09-23T07:58:58;2.80;;;2.40;;
19456;SDS011;9867;48.094;11.478;2022-09-23T08:01:29;2.70;;;2.40;;
19456;SDS011;9867;48.094;11.478;2022-09-23T08:04:00;3.77;;;3.30;;
19456;SDS011;9867;48.094;11.478;2022-09-23T08:06:31;2.60;;;2.40;;
19456;SDS011;9867;48.094;11.478;2022-09-23T08:08:59;3.20;;;1.97;;
19456;SDS011;9867;48.094;11.478;2022-09-23T08:11:27;3.67;;;2.50;;
19456;SDS011;9867;48.094;11.478;2022-09-23T08:13:56;2.00;;;1.90;;
19456;SDS011;9867;48.094;11.478;2022-09-23T08:16:24;2.40;;;2.20;;
19456;SDS011;9867;48.094;11.478;2022-09-23T08:18:53;4.47;;;2.17;;
19456;SDS011;9867;48.094;11.478;2022-09-23T08:21:21;2.10;;;1.90;;
19456;SDS011;9867;48.094;11.478;2022-09-23T08:23:49;2.20;;;2.00;;
19456;SDS011;9867;48.094;11.478;2022-09-23T08:26:17;2.40;;;2.20;;
19456;SDS011;9867;48.094;11.478;2022-09-23T08:28:47;2.17;;;2.07;;
19456;SDS011;9867;48.094;11.478;2022-09-23T08:31:16;2.43;;;2.10;;
19456;SDS011;9867;48.094;11.478;2022-09-23T08:33:44;2.30;;;2.20;;
19456;SDS011;9867;48.094;11.478;2022-09-23T08:36:13;2.60;;;2.20;;
19456;SDS011;9867;48.094;11.478;2022-09-23T08:38:40;4.37;;;2.53;;
19456;SDS011;9867;48.094;11.478;2022-09-23T08:41:10;2.30;;;2.20;;
19456;SDS011;9867;48.094;11.478;2022-09-23T08:43:46;2.40;;;2.20;;
19456;SDS011;9867;48.094;11.478;2022-09-23T08:46:20;4.50;;;2.40;;
19456;SDS011;9867;48.094;11.478;2022-09-23T08:48:52;2.87;;;2.63;;
19456;SDS011;9867;48.094;11.478;2022-09-23T08:51:24;3.00;;;2.70;;
19456;SDS011;9867;48.094;11.478;2022-09-23T08:53:57;3.13;;;2.93;;
19456;SDS011;9867;48.094;11.478;2022-09-23T08:56:26;4.53;;;3.17;;
19456;SDS011;9867;48.094;11.478;2022-09-23T08:58:59;3.80;;;3.50;;
19456;SDS011;9867;48.094;11.478;2022-09-23T09:01:32;3.60;;;3.30;;
19456;SDS011;9867;48.094;11.478;2022-09-23T09:04:11;5.07;;;3.40;;
19456;SDS011;9867;48.094;11.478;2022-09-23T09:06:45;6.23;;;3.37;;
19456;SDS011;9867;48.094;11.478;2022-09-23T09:09:23;4.73;;;3.40;;
19456;SDS011;9867;48.094;11.478;2022-09-23T09:11:55;3.90;;;3.60;;
19456;SDS011;9867;48.094;11.478;2022-09-23T09:14:30;3.93;;;3.63;;
19456;SDS011;9867;48.094;11.478;2022-09-23T09:17:04;3.87;;;3.53;;
19456;SDS011;9867;48.094;11.478;2022-09-23T09:19:41;6.60;;;3.50;;
19456;SDS011;9867;48.094;11.478;2022-09-23T09:22:20;5.03;;;3.40;;
19456;SDS011;9867;48.094;11.478;2022-09-23T09:24:57;6.00;;;3.47;;
19456;SDS011;9867;48.094;11.478;2022-09-23T09:27:31;3.63;;;3.20;;
19456;SDS011;9867;48.094;11.478;2022-09-23T09:29:59;5.13;;;3.73;;
19456;SDS011;9867;48.094;11.478;2022-09-23T09:32:32;3.40;;;3.10;;
19456;SDS011;9867;48.094;11.478;2022-09-23T09:35:17;4.27;;;3.00;;
19456;SDS011;9867;48.094;11.478;2022-09-23T09:37:52;3.90;;;3.50;;
19456;SDS011;9867;48.094;11.478;2022-09-23T09:40:21;3.40;;;3.10;;
19456;SDS011;9867;48.094;11.478;2022-09-23T09:42:49;4.03;;;3.10;;
19456;SDS011;9867;48.094;11.478;2022-09-23T09:45:19;3.30;;;3.00;;
19456;SDS011;9867;48.094;11.478;2022-09-23T09:48:00;4.63;;;3.27;;
19456;SDS011;9867;48.094;11.478;2022-09-23T09:50:40;4.23;;;3.10;;
19456;SDS011;9867;48.094;11.478;2022-09-23T09:53:21;5.57;;;3.40;;
19456;SDS011;9867;48.094;11.478;2022-09-23T09:55:58;5.50;;;3.23;;
19456;SDS011;9867;48.094;11.478;2022-09-23T09:58:35;5.13;;;3.40;;
19456;SDS011;9867;48.094;11.478;2022-09-23T10:01:16;4.93;;;3.50;;
19456;SDS011;9867;48.094;11.478;2022-09-23T10:03:45;3.30;;;2.93;;
19456;SDS011;9867;48.094;11.478;2022-09-23T10:06:18;5.50;;;2.87;;
19456;SDS011;9867;48.094;11.478;2022-09-23T10:09:01;2.83;;;2.60;;
19456;SDS011;9867;48.094;11.478;2022-09-23T10:11:40;4.10;;;2.77;;
19456;SDS011;9867;48.094;11.478;2022-09-23T10:14:12;3.10;;;2.70;;
19456;SDS011;9867;48.094;11.478;2022-09-23T10:16:43;4.83;;;3.10;;
19456;SDS011;9867;48.094;11.478;2022-09-23T10:19:14;8.67;;;3.60;;
19456;SDS011;9867;48.094;11.478;2022-09-23T10:21:50;3.23;;;2.40;;
19456;SDS011;9867;48.094;11.478;2022-09-23T10:24:26;2.87;;;2.37;;
19456;SDS011;9867;48.094;11.478;2022-09-23T10:26:58;2.50;;;2.20;;
19456;SDS011;9867;48.094;11.478;2022-09-23T10:29:29;2.83;;;2.57;;
19456;SDS011;9867;48.094;11.478;2022-09-23T10:32:12;3.03;;;2.50;;
19456;SDS011;9867;48.094;11.478;2022-09-23T10:34:46;2.70;;;2.50;;
19456;SDS011;9867;48.094;11.478;2022-09-23T10:37:19;2.57;;;2.37;;
19456;SDS011;9867;48.094;11.478;2022-09-23T10:39:55;3.47;;;2.43;;
19456;SDS011;9867;48.094;11.478;2022-09-23T10:42:56;4.00;;;2.80;;
19456;SDS011;9867;48.094;11.478;2022-09-23T10:45:59;3.10;;;2.13;;
19456;SDS011;9867;48.094;11.478;2022-09-23T10:48:50;3.40;;;2.73;;
19456;SDS011;9867;48.094;11.478;2022-09-23T10:51:31;4.10;;;2.50;;
19456;SDS011;9867;48.094;11.478;2022-09-23T10:54:08;2.30;;;2.10;;
19456;SDS011;9867;48.094;11.478;2022-09-23T10:56:46;2.20;;;2.10;;
19456;SDS011;9867;48.094;11.478;2022-09-23T11:02:16;2.33;;;1.90;;
19456;SDS011;9867;48.094;11.478;2022-09-23T11:07:52;3.47;;;2.40;;
19456;SDS011;9867;48.094;11.478;2022-09-23T11:10:47;4.07;;;2.43;;
19456;SDS011;9867;48.094;11.478;2022-09-23T11:13:41;3.77;;;2.50;;
19456;SDS011;9867;48.094;11.478;2022-09-23T11:16:27;3.13;;;2.50;;
19456;SDS011;9867;48.094;11.478;2022-09-23T11:19:18;3.17;;;2.30;;
19456;SDS011;9867;48.094;11.478;2022-09-23T11:22:13;2.80;;;2.50;;
19456;SDS011;9867;48.094;11.478;2022-09-23T11:25:12;5.00;;;2.77;;
19456;SDS011;9867;48.094;11.478;2022-09-23T11:27:53;2.63;;;2.43;;
19456;SDS011;9867;48.094;11.478;2022-09-23T11:30:39;3.60;;;2.30;;
19456;SDS011;9867;48.094;11.478;2022-09-23T11:33:18;4.80;;;2.30;;
19456;SDS011;9867;48.094;11.478;2022-09-23T11:35:58;6.70;;;2.43;;
19456;SDS011;9867;48.094;11.478;2022-09-23T11:38:34;2.63;;;2.40;;
19456;SDS011;9867;48.094;11.478;2022-09-23T11:41:11;4.13;;;2.63;;
19456;SDS011;9867;48.094;11.478;2022-09-23T11:43:45;4.20;;;3.00;;
19456;SDS011;9867;48.094;11.478;2022-09-23T11:46:20;3.83;;;2.30;;
19456;SDS011;9867;48.094;11.478;2022-09-23T11:48:57;3.13;;;2.50;;
19456;SDS011;9867;48.094;11.478;2022-09-23T11:51:32;3.60;;;2.50;;
19456;SDS011;9867;48.094;11.478;2022-09-23T11:54:08;6.23;;;2.40;;
19456;SDS011;9867;48.094;11.478;2022-09-23T11:56:46;3.33;;;2.30;;
19456;SDS011;9867;48.094;11.478;2022-09-23T11:59:22;2.53;;;2.30;;
19456;SDS011;9867;48.094;11.478;2022-09-23T12:02:10;3.73;;;2.60;;
19456;SDS011;9867;48.094;11.478;2022-09-23T12:04:50;6.13;;;2.77;;
19456;SDS011;9867;48.094;11.478;2022-09-23T12:07:28;3.47;;;2.67;;
19456;SDS011;9867;48.094;11.478;2022-09-23T12:10:06;2.93;;;2.30;;
19456;SDS011;9867;48.094;11.478;2022-09-23T12:12:36;5.63;;;2.93;;
19456;SDS011;9867;48.094;11.478;2022-09-23T12:15:16;3.33;;;3.00;;
19456;SDS011;9867;48.094;11.478;2022-09-23T12:18:00;4.73;;;2.67;;
19456;SDS011;9867;48.094;11.478;2022-09-23T12:21:01;3.60;;;3.00;;
19456;SDS011;9867;48.094;11.478;2022-09-23T12:23:59;3.10;;;2.80;;
19456;SDS011;9867;48.094;11.478;2022-09-23T12:26:44;3.77;;;3.17;;
19456;SDS011;9867;48.094;11.478;2022-09-23T12:29:16;3.90;;;2.60;;
19456;SDS011;9867;48.094;11.478;2022-09-23T12:31:44;2.80;;;2.60;;
19456;SDS011;9867;48.094;11.478;2022-09-23T12:34:20;3.20;;;2.90;;
19456;SDS011;9867;48.094;11.478;2022-09-23T12:36:51;2.50;;;2.30;;
19456;SDS011;9867;48.094;11.478;2022-09-23T12:39:22;3.90;;;2.70;;
19456;SDS011;9867;48.094;11.478;2022-09-23T12:41:56;3.10;;;2.80;;
19456;SDS011;9867;48.094;11.478;2022-09-23T12:44:31;4.77;;;2.83;;
19456;SDS011;9867;48.094;11.478;2022-09-23T12:49:58;2.97;;;2.70;;
19456;SDS011;9867;48.094;11.478;2022-09-23T12:52:27;4.60;;;2.87;;
19456;SDS011;9867;48.094;11.478;2022-09-23T12:54:57;3.63;;;2.17;;
19456;SDS011;9867;48.094;11.478;2022-09-23T12:57:59;3.77;;;2.93;;
19456;SDS011;9867;48.094;11.478;2022-09-23T13:00:27;2.80;;;2.60;;
19456;SDS011;9867;48.094;11.478;2022-09-23T13:02:59;3.60;;;2.50;;
19456;SDS011;9867;48.094;11.478;2022-09-23T13:05:47;2.60;;;2.40;;
19456;SDS011;9867;48.094;11.478;2022-09-23T13:08:35;4.87;;;3.20;;
19456;SDS011;9867;48.094;11.478;2022-09-23T13:11:06;6.10;;;3.27;;
19456;SDS011;9867;48.094;11.478;2022-09-23T13:13:44;3.57;;;2.70;;
19456;SDS011;9867;48.094;11.478;2022-09-23T13:16:19;4.23;;;2.97;;
19456;SDS011;9867;48.094;11.478;2022-09-23T13:18:51;5.80;;;3.23;;
19456;SDS011;9867;48.094;11.478;2022-09-23T13:24:35;3.07;;;2.77;;
19456;SDS011;9867;48.094;11.478;2022-09-23T13:27:10;2.97;;;2.67;;
19456;SDS011;9867;48.094;11.478;2022-09-23T13:29:42;5.00;;;3.70;;
19456;SDS011;9867;48.094;11.478;2022-09-23T13:32:13;4.33;;;2.70;;
19456;SDS011;9867;48.094;11.478;2022-09-23T13:34:45;3.60;;;2.80;;
19456;SDS011;9867;48.094;11.478;2022-09-23T13:37:21;3.80;;;2.70;;
19456;SDS011;9867;48.094;11.478;2022-09-23T13:39:52;3.77;;;2.70;;
19456;SDS011;9867;48.094;11.478;2022-09-23T13:42:33;3.87;;;3.50;;
19456;SDS011;9867;48.094;11.478;2022-09-23T13:45:11;5.17;;;3.40;;
19456;SDS011;9867;48.094;11.478;2022-09-23T13:47:42;4.87;;;3.03;;
19456;SDS011;9867;48.094;11.478;2022-09-23T13:50:13;3.03;;;2.67;;
19456;SDS011;9867;48.094;11.478;2022-09-23T13:52:44;3.40;;;2.87;;
19456;SDS011;9867;48.094;11.478;2022-09-23T13:55:29;4.10;;;2.70;;
19456;SDS011;9867;48.094;11.478;2022-09-23T13:57:59;3.00;;;2.60;;
19456;SDS011;9867;48.094;11.478;2022-09-23T14:00:33;3.23;;;2.50;;
19456;SDS011;9867;48.094;11.478;2022-09-23T14:03:14;2.23;;;1.70;;
19456;SDS011;9867;48.094;11.478;2022-09-23T14:05:59;3.87;;;2.03;;
19456;SDS011;9867;48.094;11.478;2022-09-23T14:08:28;2.97;;;1.90;;
19456;SDS011;9867;48.094;11.478;2022-09-23T14:10:59;1.87;;;1.77;;
19456;SDS011;9867;48.094;11.478;2022-09-23T14:13:29;3.63;;;1.90;;
19456;SDS011;9867;48.094;11.478;2022-09-23T14:16:03;3.87;;;2.20;;
19456;SDS011;9867;48.094;11.478;2022-09-23T14:18:32;2.53;;;2.30;;
19456;SDS011;9867;48.094;11.478;2022-09-23T14:21:03;3.13;;;2.20;;
19456;SDS011;9867;48.094;11.478;2022-09-23T14:23:31;3.73;;;2.60;;
19456;SDS011;9867;48.094;11.478;2022-09-23T14:26:01;4.00;;;2.20;;
19456;SDS011;9867;48.094;11.478;2022-09-23T14:28:28;4.40;;;2.47;;
19456;SDS011;9867;48.094;11.478;2022-09-23T14:30:56;5.20;;;2.33;;
19456;SDS011;9867;48.094;11.478;2022-09-23T14:33:26;3.50;;;2.60;;
19456;SDS011;9867;48.094;11.478;2022-09-23T14:36:00;5.90;;;2.67;;
19456;SDS011;9867;48.094;11.478;2022-09-23T14:38:31;5.00;;;3.50;;
19456;SDS011;9867;48.094;11.478;2022-09-23T14:41:22;3.10;;;2.23;;
19456;SDS011;9867;48.094;11.478;2022-09-23T14:43:53;4.23;;;2.50;;
19456;SDS011;9867;48.094;11.478;2022-09-23T14:46:24;3.03;;;2.27;;
19456;SDS011;9867;48.094;11.478;2022-09-23T14:48:54;3.03;;;2.20;;
19456;SDS011;9867;48.094;11.478;2022-09-23T14:51:31;3.60;;;2.17;;
19456;SDS011;9867;48.094;11.478;2022-09-23T14:57:23;3.03;;;2.00;;
19456;SDS011;9867;48.094;11.478;2022-09-23T14:59:54;5.27;;;2.13;;
19456;SDS011;9867;48.094;11.478;2022-09-23T15:02:31;2.60;;;2.00;;
19456;SDS011;9867;48.094;11.478;2022-09-23T15:05:14;3.57;;;2.10;;
19456;SDS011;9867;48.094;11.478;2022-09-23T15:07:48;3.53;;;2.43;;
19456;SDS011;9867;48.094;11.478;2022-09-23T15:10:19;4.90;;;2.20;;
19456;SDS011;9867;48.094;11.478;2022-09-23T15:12:51;3.43;;;2.30;;
19456;SDS011;9867;48.094;11.478;2022-09-23T15:15:23;3.33;;;2.30;;
19456;SDS011;9867;48.094;11.478;2022-09-23T15:17:54;5.17;;;2.30;;
19456;SDS011;9867;48.094;11.478;2022-09-23T15:20:28;3.53;;;2.20;;
19456;SDS011;9867;48.094;11.478;2022-09-23T15:22:57;2.93;;;2.07;;
19456;SDS011;9867;48.094;11.478;2022-09-23T15:25:25;4.07;;;2.30;;
19456;SDS011;9867;48.094;11.478;2022-09-23T15:27:59;2.23;;;2.03;;
19456;SDS011;9867;48.094;11.478;2022-09-23T15:30:29;3.47;;;2.23;;
19456;SDS011;9867;48.094;11.478;2022-09-23T15:32:58;3.90;;;2.23;;
19456;SDS011;9867;48.094;11.478;2022-09-23T15:35:26;2.73;;;2.20;;
19456;SDS011;9867;48.094;11.478;2022-09-23T15:37:57;3.53;;;1.93;;
19456;SDS011;9867;48.094;11.478;2022-09-23T15:40:28;2.97;;;2.10;;
19456;SDS011;9867;48.094;11.478;2022-09-23T15:43:00;3.13;;;2.20;;